createdAt,value
2022-09-05T00:01:55.644Z,78.20
2022-09-05T00:05:13.296Z,78.00
2022-09-05T00:08:00.256Z,77.90
2022-09-05T00:11:39.693Z,78.20
2022-09-05T00:14:57.305Z,78.10
2022-09-05T00:18:45.491Z,78.10
2022-09-05T00:24:34.560Z,78.30
2022-09-05T00:24:37.607Z,78.60
2022-09-05T00:27:16.088Z,78.60
2022-09-05T00:31:07.224Z,78.60
2022-09-05T00:33:22.954Z,78.50
2022-09-05T00:35:53.031Z,78.70
2022-09-05T00:38:32.080Z,78.80
2022-09-05T00:41:10.466Z,78.60
2022-09-05T00:43:44.591Z,78.60
2022-09-05T00:46:29.247Z,78.40
2022-09-05T00:49:17.904Z,78.70
2022-09-05T00:52:08.232Z,78.50
2022-09-05T00:55:13.985Z,78.80
2022-09-05T00:58:14.179Z,78.80
2022-09-05T01:00:46.236Z,78.80
2022-09-05T01:03:25.423Z,79.10
2022-09-05T01:06:11.702Z,79.60
2022-09-05T01:09:08.004Z,80.00
2022-09-05T01:11:54.945Z,80.10
2022-09-05T01:14:40.463Z,80.30
2022-09-05T01:17:38.392Z,80.50
2022-09-05T01:20:43.760Z,81.20
2022-09-05T01:23:22.444Z,81.60
2022-09-05T01:26:07.492Z,81.80
2022-09-05T01:29:19.674Z,82.10
2022-09-05T01:32:15.335Z,81.80
2022-09-05T01:35:42.296Z,82.20
2022-09-05T01:40:10.577Z,82.60
2022-09-05T01:41:58.279Z,82.50
2022-09-05T01:44:51.158Z,82.80
2022-09-05T01:47:29.635Z,83.20
2022-09-05T01:50:27.749Z,83.50
2022-09-05T01:53:21.318Z,83.80
2022-09-05T01:56:15.491Z,83.90
2022-09-05T01:58:54.159Z,84.70
2022-09-05T02:01:32.433Z,84.40
2022-09-05T02:04:48.148Z,84.90
2022-09-05T02:07:53.804Z,85.40
2022-09-05T02:10:48.339Z,85.60
2022-09-05T02:13:33.916Z,86.00
2022-09-05T02:16:15.959Z,86.30
2022-09-05T02:19:07.603Z,87.20
2022-09-05T02:21:36.729Z,87.50
2022-09-05T02:24:35.658Z,88.00
2022-09-05T02:27:31.506Z,88.40
2022-09-05T02:30:12.667Z,88.50
2022-09-05T02:32:46.914Z,89.70
2022-09-05T02:35:31.851Z,89.70
2022-09-05T02:40:53.531Z,90.10
2022-09-05T02:45:12.796Z,90.60
2022-09-05T02:45:15.039Z,90.10
2022-09-05T02:47:15.806Z,90.70
2022-09-05T02:53:21.748Z,90.90
2022-09-05T02:57:34.885Z,91.20
2022-09-05T02:57:42.651Z,91.10
2022-09-05T02:59:39.121Z,91.40
2022-09-05T03:02:25.307Z,91.80
2022-09-05T03:05:28.949Z,91.80
2022-09-05T03:08:11.084Z,92.00
2022-09-05T03:11:08.521Z,92.00
2022-09-05T03:13:55.624Z,92.30
2022-09-05T03:16:31.683Z,92.60
2022-09-05T03:19:15.623Z,93.00
2022-09-05T03:22:37.383Z,93.00
2022-09-05T03:25:19.193Z,93.30
2022-09-05T03:28:34.408Z,94.00
2022-09-05T03:31:25.106Z,94.20
2022-09-05T03:34:19.667Z,94.60
2022-09-05T03:37:25.897Z,94.70
2022-09-05T03:40:31.237Z,94.60
2022-09-05T03:43:21.271Z,95.00
2022-09-05T03:46:36.536Z,95.30
2022-09-05T03:52:58.384Z,95.80
2022-09-05T03:57:12.694Z,96.00
2022-09-05T03:57:16.514Z,96.30
2022-09-05T03:58:57.085Z,96.60
2022-09-05T04:02:40.383Z,96.60
2022-09-05T04:08:13.436Z,96.90
2022-09-05T04:08:20.497Z,96.70
2022-09-05T04:10:55.081Z,97.20
2022-09-05T04:13:33.684Z,97.60
2022-09-05T04:16:21.905Z,98.20
2022-09-05T04:19:15.512Z,98.60
2022-09-05T04:22:00.169Z,98.50
2022-09-05T04:24:55.334Z,98.90
2022-09-05T04:27:28.907Z,99.30
2022-09-05T04:30:00.224Z,99.20
2022-09-05T04:32:57.483Z,99.40
2022-09-05T04:35:38.222Z,99.50
2022-09-05T04:38:17.322Z,99.60
2022-09-05T04:40:56.265Z,99.60
2022-09-05T04:43:34.150Z,99.70
2022-09-05T04:46:09.414Z,99.80
2022-09-05T04:49:00.159Z,99.90
2022-09-05T04:52:02.877Z,99.90
2022-09-05T04:54:50.570Z,99.90
2022-09-05T04:57:31.664Z,99.90
2022-09-05T05:06:03.161Z,99.90
2022-09-05T05:06:15.110Z,99.90
2022-09-05T05:06:43.890Z,99.80
2022-09-05T05:09:26.952Z,99.80
2022-09-05T05:17:56.692Z,99.60
2022-09-05T05:18:01.161Z,99.60
2022-09-05T05:18:12.787Z,99.40
2022-09-05T05:21:10.915Z,99.40
2022-09-05T05:23:57.226Z,99.40
2022-09-05T05:26:36.721Z,99.70
2022-09-05T05:29:23.312Z,99.30
2022-09-05T05:31:54.099Z,99.20
2022-09-05T05:37:33.611Z,99.00
2022-09-05T05:40:11.112Z,99.00
2022-09-05T05:42:40.596Z,99.00
2022-09-05T05:45:27.678Z,98.90
2022-09-05T05:48:06.692Z,98.90
2022-09-05T05:51:03.272Z,98.90
2022-09-05T05:53:43.674Z,98.60
2022-09-05T05:56:35.154Z,98.50
2022-09-05T05:59:57.568Z,98.50
2022-09-05T06:03:25.691Z,98.50
2022-09-05T06:06:05.503Z,98.00
2022-09-05T06:12:09.675Z,97.70
2022-09-05T06:14:50.671Z,97.50
2022-09-05T06:15:10.271Z,96.80
2022-09-05T06:18:07.475Z,95.70
2022-09-05T06:22:09.468Z,94.90
2022-09-05T06:23:54.762Z,94.20
2022-09-05T06:27:05.849Z,93.70
2022-09-05T06:29:49.039Z,93.30
2022-09-05T06:32:41.796Z,92.30
2022-09-05T06:35:45.414Z,90.00
2022-09-05T06:38:23.851Z,86.00
2022-09-05T06:41:20.646Z,83.40
2022-09-05T06:43:56.313Z,82.50
2022-09-05T06:46:54.267Z,83.10
2022-09-05T06:49:56.250Z,80.10
2022-09-05T06:52:46.050Z,77.00
2022-09-05T06:55:25.329Z,76.70
2022-09-05T06:58:26.274Z,73.50
2022-09-05T07:00:55.606Z,72.60
2022-09-05T07:03:41.051Z,73.00
2022-09-05T07:07:01.096Z,71.90
2022-09-05T07:09:40.341Z,69.70
2022-09-05T07:12:30.734Z,64.00
2022-09-05T07:15:29.575Z,60.00
2022-09-05T07:18:11.233Z,58.60
2022-09-05T07:21:16.653Z,59.10
2022-09-05T07:24:05.748Z,60.30
2022-09-05T07:26:52.331Z,62.50
2022-09-05T07:29:36.915Z,63.90
2022-09-05T07:32:07.080Z,65.10
2022-09-05T07:34:37.138Z,65.50
2022-09-05T07:37:14.960Z,66.80
2022-09-05T07:40:25.432Z,67.60
2022-09-05T07:43:18.842Z,68.50
2022-09-05T07:46:02.190Z,68.70
2022-09-05T07:48:34.872Z,69.10
2022-09-05T07:56:39.224Z,70.10
2022-09-05T07:57:09.200Z,70.60
2022-09-05T07:59:45.172Z,72.00
2022-09-05T08:02:13.514Z,72.30
2022-09-05T08:04:42.074Z,72.30
2022-09-05T08:07:48.802Z,72.70
2022-09-05T08:10:18.567Z,73.00
2022-09-05T08:13:23.939Z,73.50
2022-09-05T08:16:11.075Z,74.00
2022-09-05T08:18:54.326Z,74.30
2022-09-05T08:21:42.427Z,75.10
2022-09-05T08:24:29.575Z,75.40
2022-09-05T08:27:16.012Z,75.40
2022-09-05T08:30:24.603Z,75.60
2022-09-05T08:33:11.040Z,75.30
2022-09-05T08:36:01.050Z,75.60
2022-09-05T08:38:37.359Z,75.90
2022-09-05T08:41:15.479Z,75.80
2022-09-05T08:46:40.509Z,76.00
2022-09-05T08:47:45.028Z,76.30
2022-09-05T08:50:31.665Z,76.60
2022-09-05T08:53:28.169Z,76.30
2022-09-05T08:56:22.964Z,76.30
2022-09-05T08:59:28.291Z,76.20
2022-09-05T09:02:44.900Z,76.30
2022-09-05T09:05:21.060Z,75.90
2022-09-05T09:08:13.047Z,75.20
2022-09-05T09:10:57.413Z,75.50
2022-09-05T09:13:37.882Z,75.70
2022-09-05T09:16:25.046Z,75.10
2022-09-05T09:18:51.988Z,74.60
2022-09-05T09:21:35.746Z,74.00
2022-09-05T09:24:14.223Z,72.90
2022-09-05T09:26:57.418Z,73.30
2022-09-05T09:29:25.449Z,73.60
2022-09-05T09:32:25.225Z,73.70
2022-09-05T09:35:01.626Z,73.80
2022-09-05T09:37:59.412Z,74.00
2022-09-05T09:40:26.685Z,73.00
2022-09-05T09:43:14.355Z,73.20
2022-09-05T09:46:01.943Z,73.20
2022-09-05T09:48:43.870Z,73.50
2022-09-05T09:51:41.596Z,72.50
2022-09-05T09:54:42.650Z,72.40
2022-09-05T09:57:28.650Z,72.20
2022-09-05T10:00:11.877Z,72.30
2022-09-05T10:10:05.969Z,72.50
2022-09-05T10:11:08.156Z,71.80
2022-09-05T10:11:09.483Z,72.10
2022-09-05T10:13:42.392Z,71.30
2022-09-05T10:16:24.287Z,70.50
2022-09-05T10:18:56.772Z,70.90
2022-09-05T10:25:19.049Z,70.40
2022-09-05T10:28:28.396Z,70.70
2022-09-05T10:32:50.619Z,70.30
2022-09-05T10:35:13.893Z,69.40
2022-09-05T10:37:05.750Z,69.20
2022-09-05T10:39:35.573Z,68.90
2022-09-05T10:42:08.838Z,68.90
2022-09-05T10:44:48.133Z,69.40
2022-09-05T10:47:31.065Z,69.30
2022-09-05T10:50:30.668Z,69.10
2022-09-05T10:53:00.359Z,69.30
2022-09-05T10:55:50.542Z,68.60
2022-09-05T11:00:56.442Z,68.80
2022-09-05T11:02:28.496Z,68.60
2022-09-05T11:04:49.941Z,68.20
2022-09-05T11:07:42.134Z,68.60
2022-09-05T11:10:24.461Z,68.50
2022-09-05T11:13:01.289Z,68.20
2022-09-05T11:15:31.186Z,68.50
2022-09-05T11:18:05.827Z,68.20
2022-09-05T11:20:44.791Z,68.20
2022-09-05T11:23:18.202Z,68.10
2022-09-05T11:25:47.803Z,67.50
2022-09-05T11:28:30.773Z,67.70
2022-09-05T11:31:02.232Z,67.40
2022-09-05T11:39:48.595Z,67.30
2022-09-05T11:39:58.278Z,67.30
2022-09-05T11:40:28.448Z,67.50
2022-09-05T11:42:53.133Z,67.00
2022-09-05T11:45:51.075Z,67.20
2022-09-05T11:48:28.491Z,67.50
2022-09-05T11:51:10.665Z,67.50
2022-09-05T11:54:01.402Z,67.10
2022-09-05T11:56:41.944Z,67.00
2022-09-05T11:59:15.772Z,67.40
2022-09-05T12:02:17.076Z,67.10
2022-09-05T12:05:48.855Z,67.10
2022-09-05T12:08:41.401Z,67.10
2022-09-05T12:11:25.531Z,66.70
2022-09-05T12:14:30.627Z,66.40
2022-09-05T12:17:35.604Z,66.60
2022-09-05T12:20:33.683Z,66.20
2022-09-05T12:23:54.032Z,65.60
2022-09-05T12:27:42.634Z,66.40
2022-09-05T12:29:35.543Z,66.50
2022-09-05T12:34:18.766Z,66.30
2022-09-05T12:36:07.377Z,66.30
2022-09-05T12:41:01.066Z,65.70
2022-09-05T12:41:37.436Z,65.60
2022-09-05T12:44:38.705Z,65.80
2022-09-05T12:46:45.754Z,65.10
2022-09-05T12:49:36.363Z,65.10
2022-09-05T12:52:17.622Z,65.30
2022-09-05T12:54:51.766Z,65.30
2022-09-05T13:02:02.879Z,64.80
2022-09-05T13:03:02.134Z,64.70
2022-09-05T13:03:28.007Z,65.10
2022-09-05T13:06:25.693Z,64.50
2022-09-05T13:09:01.535Z,64.90
2022-09-05T13:14:53.766Z,64.70
2022-09-05T13:15:01.060Z,64.40
2022-09-05T13:17:16.624Z,64.60
2022-09-05T13:19:51.719Z,64.50
2022-09-05T13:22:22.001Z,64.50
2022-09-05T13:24:58.858Z,64.00
2022-09-05T13:27:31.738Z,64.20
2022-09-05T13:32:58.873Z,64.00
2022-09-05T13:38:01.011Z,63.90
2022-09-05T13:38:20.158Z,63.90
2022-09-05T13:39:14.231Z,64.30
2022-09-05T13:41:50.822Z,64.60
2022-09-05T13:44:26.402Z,64.50
2022-09-05T13:47:02.627Z,63.80
2022-09-05T13:49:56.909Z,64.10
2022-09-05T13:52:37.840Z,63.40
2022-09-05T13:55:17.268Z,63.40
2022-09-05T13:57:51.142Z,63.40
2022-09-05T14:00:28.166Z,63.20
2022-09-05T14:03:40.526Z,63.10
2022-09-05T14:06:46.928Z,63.20
2022-09-05T14:09:58.574Z,63.40
2022-09-05T14:12:47.747Z,62.70
2022-09-05T14:15:25.008Z,63.10
2022-09-05T14:18:20.179Z,63.20
2022-09-05T14:21:17.365Z,63.20
2022-09-05T14:23:57.592Z,63.00
2022-09-05T14:26:30.852Z,62.90
2022-09-05T14:29:03.936Z,62.80
2022-09-05T14:36:33.481Z,62.60
2022-09-05T14:37:45.590Z,62.60
2022-09-05T14:38:04.354Z,62.50
2022-09-05T14:40:56.798Z,62.70
2022-09-05T14:43:56.867Z,62.60
2022-09-05T14:46:38.553Z,62.30
2022-09-05T14:49:35.923Z,62.30
2022-09-05T14:52:20.389Z,62.30
2022-09-05T15:02:38.280Z,62.50
2022-09-05T15:02:52.510Z,61.90
2022-09-05T15:06:39.203Z,62.00
2022-09-05T15:11:24.029Z,62.20
2022-09-05T15:12:26.337Z,62.10
2022-09-05T15:15:20.117Z,61.90
2022-09-05T15:17:51.869Z,61.80
2022-09-05T15:20:33.221Z,61.80
2022-09-05T15:23:05.660Z,61.90
2022-09-05T15:25:49.555Z,62.10
2022-09-05T15:28:30.201Z,62.10
2022-09-05T15:31:00.226Z,62.10
2022-09-05T15:33:29.993Z,61.80
2022-09-05T15:35:58.339Z,61.50
2022-09-05T15:38:46.315Z,61.50
2022-09-05T15:41:25.301Z,61.60
2022-09-05T15:44:01.698Z,61.40
2022-09-05T15:46:38.146Z,61.00
2022-09-05T15:49:11.404Z,60.80
2022-09-05T15:51:51.072Z,60.80
2022-09-05T15:54:37.600Z,60.40
2022-09-05T15:57:09.057Z,60.40
2022-09-05T15:59:48.131Z,60.40
2022-09-05T16:02:23.819Z,60.60
2022-09-05T16:10:28.408Z,60.60
2022-09-05T16:10:41.285Z,60.80
2022-09-05T16:12:07.327Z,61.00
2022-09-05T16:14:39.637Z,60.60
2022-09-05T16:23:12.304Z,61.10
2022-09-05T16:23:33.321Z,61.20
2022-09-05T16:23:42.849Z,61.30
2022-09-05T16:26:26.814Z,61.30
2022-09-05T16:29:05.443Z,61.60
2022-09-05T16:31:48.325Z,61.80
2022-09-05T16:34:47.399Z,61.90
2022-09-05T16:37:26.272Z,62.30
2022-09-05T16:40:11.718Z,62.50
2022-09-05T16:42:51.188Z,62.70
2022-09-05T16:45:36.451Z,63.00
2022-09-05T16:48:03.433Z,63.10
2022-09-05T16:50:48.089Z,63.20
2022-09-05T16:53:38.845Z,63.30
2022-09-05T16:56:38.616Z,63.50
2022-09-05T16:59:22.524Z,63.60
2022-09-05T17:02:09.548Z,63.60
2022-09-05T17:05:11.455Z,63.80
2022-09-05T17:08:06.178Z,64.00
2022-09-05T17:11:03.616Z,64.20
2022-09-05T17:13:39.986Z,64.40
2022-09-05T17:16:10.823Z,64.70
2022-09-05T17:18:39.073Z,64.80
2022-09-05T17:21:12.700Z,65.00
2022-09-05T17:29:16.588Z,65.00
2022-09-05T17:29:25.564Z,65.30
2022-09-05T17:32:47.214Z,65.60
2022-09-05T17:35:23.165Z,65.90
2022-09-05T17:38:10.250Z,66.00
2022-09-05T17:41:15.345Z,66.30
2022-09-05T17:43:42.535Z,66.90
2022-09-05T17:46:28.904Z,67.20
2022-09-05T17:49:19.999Z,67.20
2022-09-05T17:51:53.427Z,67.80
2022-09-05T17:54:31.856Z,68.40
2022-09-05T17:57:27.745Z,68.60
2022-09-05T17:59:55.734Z,69.00
2022-09-05T18:02:23.928Z,69.10
2022-09-05T18:04:53.096Z,69.30
2022-09-05T18:07:19.930Z,69.30
2022-09-05T18:10:07.534Z,69.20
2022-09-05T18:13:13.258Z,69.90
2022-09-05T18:15:32.518Z,76.10
2022-09-05T18:18:03.864Z,79.10
2022-09-05T18:20:39.741Z,84.10
2022-09-05T18:23:18.009Z,90.20
2022-09-05T18:26:22.907Z,95.70
2022-09-05T18:28:52.699Z,99.90
2022-09-05T18:31:41.938Z,99.90
2022-09-05T18:34:15.820Z,99.90
2022-09-05T18:36:51.844Z,99.90
2022-09-05T18:39:28.048Z,99.90
2022-09-05T18:42:33.118Z,99.90
2022-09-05T18:45:16.145Z,99.90
2022-09-05T18:47:59.024Z,99.90
2022-09-05T18:50:34.452Z,99.90
2022-09-05T18:53:10.721Z,99.90
2022-09-05T18:56:11.617Z,99.90
2022-09-05T18:58:52.911Z,99.90
2022-09-05T19:01:48.822Z,99.90
2022-09-05T19:04:53.321Z,99.90
2022-09-05T19:07:32.174Z,99.90
2022-09-05T19:10:35.188Z,99.90
2022-09-05T19:13:01.559Z,99.90
2022-09-05T19:15:42.555Z,99.90
2022-09-05T19:18:36.834Z,99.90
2022-09-05T19:21:13.485Z,99.90
2022-09-05T19:23:53.186Z,99.90
2022-09-05T19:26:21.754Z,99.90
2022-09-05T19:36:49.317Z,99.90
2022-09-05T19:37:04.209Z,99.90
2022-09-05T19:37:08.545Z,99.90
2022-09-05T19:37:40.951Z,99.90
2022-09-05T19:43:36.270Z,99.90
2022-09-05T19:47:34.815Z,99.90
2022-09-05T19:47:50.994Z,99.90
2022-09-05T19:48:34.370Z,99.90
2022-09-05T20:00:01.431Z,99.90
2022-09-05T20:02:33.079Z,99.90
2022-09-05T20:05:03.183Z,99.90
2022-09-05T20:07:32.075Z,99.90
2022-09-05T20:10:01.450Z,99.90
2022-09-05T20:12:37.457Z,99.90
2022-09-05T20:15:37.222Z,99.90
2022-09-05T20:18:25.740Z,99.90
2022-09-05T20:20:59.569Z,99.90
2022-09-05T20:23:28.949Z,99.90
2022-09-05T20:25:58.017Z,99.90
2022-09-05T20:28:30.826Z,99.90
2022-09-05T20:31:08.440Z,99.90
2022-09-05T20:33:51.861Z,99.90
2022-09-05T20:43:18.808Z,99.90
2022-09-05T20:43:30.100Z,99.90
2022-09-05T20:43:36.453Z,99.90
2022-09-05T20:45:44.514Z,99.90
2022-09-05T20:50:58.281Z,99.90
2022-09-05T20:54:17.370Z,99.90
2022-09-05T20:54:18.046Z,99.90
2022-09-05T20:56:48.181Z,99.90
2022-09-05T20:59:33.464Z,99.90
2022-09-05T21:02:03.223Z,99.90
2022-09-05T21:04:33.240Z,99.90
2022-09-05T21:07:18.351Z,99.90
2022-09-05T21:09:49.904Z,99.90
2022-09-05T21:12:27.587Z,99.90
2022-09-05T21:15:21.310Z,99.90
2022-09-05T21:17:53.338Z,99.90
2022-09-05T21:20:24.327Z,99.90
2022-09-05T21:22:51.370Z,99.90
2022-09-05T21:25:43.695Z,99.90
2022-09-05T21:28:36.615Z,99.90
2022-09-05T21:31:13.641Z,99.90
2022-09-05T21:33:45.530Z,99.90
2022-09-05T21:36:15.358Z,99.90
2022-09-05T21:38:43.888Z,99.90
2022-09-05T21:41:16.029Z,99.90
2022-09-05T21:47:40.214Z,99.90
2022-09-05T21:47:42.893Z,99.90
2022-09-05T21:49:22.537Z,99.90
2022-09-05T21:51:50.352Z,99.90
2022-09-05T21:59:13.874Z,99.90
2022-09-05T21:59:16.302Z,99.90
2022-09-05T22:00:10.784Z,99.90
2022-09-05T22:02:38.408Z,99.90
2022-09-05T22:05:05.748Z,99.90
2022-09-05T22:07:35.670Z,99.90
2022-09-05T22:10:04.757Z,99.90
2022-09-05T22:12:38.847Z,99.90
2022-09-05T22:15:28.004Z,99.90
2022-09-05T22:18:02.565Z,99.90
2022-09-05T22:20:53.427Z,99.90
2022-09-05T22:23:36.927Z,99.90
2022-09-05T22:26:07.766Z,99.90
2022-09-05T22:28:38.587Z,99.90
2022-09-05T22:31:07.713Z,99.90
2022-09-05T22:33:36.001Z,99.90
2022-09-05T22:36:03.858Z,99.90
2022-09-05T22:38:30.941Z,99.90
2022-09-05T22:40:58.264Z,99.90
2022-09-05T22:43:25.649Z,99.90
2022-09-05T22:45:59.152Z,99.90
2022-09-05T22:48:26.088Z,99.90
2022-09-05T22:50:53.029Z,99.90
2022-09-05T22:53:20.093Z,99.90
2022-09-05T22:55:47.083Z,99.90
2022-09-05T22:58:14.837Z,99.90
2022-09-05T23:00:44.137Z,99.90
2022-09-05T23:03:11.107Z,99.90
2022-09-05T23:05:38.135Z,99.90
2022-09-05T23:08:05.915Z,99.90
2022-09-05T23:10:34.433Z,99.90
2022-09-05T23:13:05.636Z,99.90
2022-09-05T23:15:33.040Z,99.90
2022-09-05T23:18:01.017Z,99.90
2022-09-05T23:20:30.621Z,99.90
2022-09-05T23:23:01.738Z,99.90
2022-09-05T23:25:28.626Z,99.90
2022-09-05T23:27:55.497Z,99.90
2022-09-05T23:30:22.408Z,99.90
2022-09-05T23:32:51.840Z,99.90
2022-09-05T23:35:19.676Z,99.90
2022-09-05T23:37:48.105Z,99.90
2022-09-05T23:40:17.807Z,99.90
2022-09-05T23:43:00.899Z,99.90
2022-09-05T23:45:28.983Z,99.90
2022-09-05T23:47:57.870Z,99.90
2022-09-05T23:50:26.341Z,99.90
2022-09-05T23:52:53.296Z,99.90
2022-09-05T23:55:22.577Z,99.90
2022-09-05T23:57:51.646Z,99.90
